createdAt,value
2018-07-09T00:01:53.265Z,99521.69
2018-07-09T00:04:21.029Z,99518.25
2018-07-09T00:06:49.766Z,99517.73
2018-07-09T00:09:17.991Z,99516.92
2018-07-09T00:11:45.706Z,99514.80
2018-07-09T00:14:13.415Z,99514.27
2018-07-09T00:16:41.563Z,99528.53
2018-07-09T00:19:09.285Z,99523.76
2018-07-09T00:21:36.995Z,99524.55
2018-07-09T00:24:05.614Z,99521.11
2018-07-09T00:26:33.655Z,99527.44
2018-07-09T00:29:01.371Z,99523.76
2018-07-09T00:31:29.138Z,99519.76
2018-07-09T00:33:57.321Z,99522.65
2018-07-09T00:36:25.060Z,99526.59
2018-07-09T00:38:53.575Z,99525.02
2018-07-09T00:41:22.090Z,99528.43
2018-07-09T00:43:50.245Z,99522.38
2018-07-09T00:46:19.366Z,99520.76
2018-07-09T00:48:47.939Z,99519.97
2018-07-09T00:51:15.696Z,99522.84
2018-07-09T00:53:43.890Z,99526.28
2018-07-09T00:56:12.555Z,99526.27
2018-07-09T00:58:40.300Z,99528.09
2018-07-09T01:01:09.650Z,99530.23
2018-07-09T01:03:37.966Z,99529.42
2018-07-09T01:06:05.712Z,99519.41
2018-07-09T01:08:34.583Z,99528.08
2018-07-09T01:11:04.176Z,99529.40
2018-07-09T01:13:31.934Z,99532.56
2018-07-09T01:16:00.241Z,99529.66
2018-07-09T01:18:28.286Z,99529.34
2018-07-09T01:20:56.000Z,99528.30
2018-07-09T01:23:24.382Z,99522.23
2018-07-09T01:25:52.116Z,99532.77
2018-07-09T01:28:20.208Z,99520.63
2018-07-09T01:30:48.585Z,99520.60
2018-07-09T01:33:16.302Z,99510.30
2018-07-09T01:35:44.401Z,99513.47
2018-07-09T01:38:12.331Z,99512.64
2018-07-09T01:40:40.071Z,99507.88
2018-07-09T01:43:07.781Z,99511.04
2018-07-09T01:45:35.846Z,99504.19
2018-07-09T01:48:03.563Z,99506.03
2018-07-09T01:50:31.271Z,99502.08
2018-07-09T01:52:58.992Z,99507.10
2018-07-09T01:55:27.128Z,99508.42
2018-07-09T01:57:56.317Z,99506.53
2018-07-09T02:00:24.050Z,99502.58
2018-07-09T02:02:52.158Z,99503.91
2018-07-09T02:05:19.892Z,99507.85
2018-07-09T02:07:47.607Z,99498.31
2018-07-09T02:10:15.324Z,99498.25
2018-07-09T02:12:43.404Z,99496.91
2018-07-09T02:15:11.138Z,99487.66
2018-07-09T02:17:38.875Z,99485.55
2018-07-09T02:20:06.995Z,99490.03
2018-07-09T02:22:34.718Z,99488.99
2018-07-09T02:25:02.439Z,99489.73
2018-07-09T02:27:31.291Z,99493.42
2018-07-09T02:29:59.307Z,99490.26
2018-07-09T02:32:27.669Z,99489.97
2018-07-09T02:34:56.595Z,99480.72
2018-07-09T02:37:24.334Z,99488.05
2018-07-09T02:39:53.421Z,99479.37
2018-07-09T02:42:21.671Z,99484.07
2018-07-09T02:44:50.111Z,99484.86
2018-07-09T02:47:18.782Z,99485.91
2018-07-09T02:49:46.981Z,99490.38
2018-07-09T02:52:14.709Z,99491.47
2018-07-09T02:54:42.681Z,99493.83
2018-07-09T02:57:10.441Z,99492.79
2018-07-09T02:59:38.683Z,99495.38
2018-07-09T03:02:06.399Z,99499.03
2018-07-09T03:04:34.271Z,99501.10
2018-07-09T03:07:02.936Z,99503.45
2018-07-09T03:09:31.975Z,99506.56
2018-07-09T03:11:59.715Z,99512.38
2018-07-09T03:14:27.794Z,99499.70
2018-07-09T03:16:58.287Z,99504.70
2018-07-09T03:19:26.485Z,99504.17
2018-07-09T03:21:54.730Z,99496.02
2018-07-09T03:24:22.466Z,99486.77
2018-07-09T03:26:50.508Z,99492.20
2018-07-09T03:29:19.006Z,99499.49
2018-07-09T03:31:46.715Z,99501.52
2018-07-09T03:34:14.904Z,99493.03
2018-07-09T03:36:42.614Z,99502.05
2018-07-09T03:39:10.346Z,99507.06
2018-07-09T03:41:38.528Z,99508.67
2018-07-09T03:44:06.267Z,99500.52
2018-07-09T03:46:33.994Z,99503.90
2018-07-09T03:49:01.743Z,99512.00
2018-07-09T03:51:29.773Z,99507.23
2018-07-09T03:53:57.489Z,99503.77
2018-07-09T03:56:26.239Z,99510.83
2018-07-09T03:58:53.961Z,99512.38
2018-07-09T04:01:22.087Z,99514.19
2018-07-09T04:03:49.827Z,99518.64
2018-07-09T04:06:17.536Z,99514.94
2018-07-09T04:08:45.335Z,99510.45
2018-07-09T04:11:13.534Z,99514.08
2018-07-09T04:13:41.330Z,99522.55
2018-07-09T04:16:09.080Z,99518.34
2018-07-09T04:18:37.201Z,99522.02
2018-07-09T04:21:04.921Z,99524.11
2018-07-09T04:23:32.651Z,99526.17
2018-07-09T04:26:00.441Z,99540.36
2018-07-09T04:28:28.603Z,99530.67
2018-07-09T04:30:57.319Z,99537.30
2018-07-09T04:33:25.064Z,99530.48
2018-07-09T04:35:53.254Z,99533.36
2018-07-09T04:38:21.017Z,99538.59
2018-07-09T04:40:48.737Z,99534.41
2018-07-09T04:43:16.858Z,99543.39
2018-07-09T04:45:44.648Z,99543.26
2018-07-09T04:48:12.384Z,99546.80
2018-07-09T04:50:40.439Z,99546.55
2018-07-09T04:53:09.455Z,99550.80
2018-07-09T04:55:37.190Z,99549.23
2018-07-09T04:58:05.327Z,99549.83
2018-07-09T05:00:33.038Z,99545.92
2018-07-09T05:03:00.791Z,99550.91
2018-07-09T05:05:28.499Z,99549.38
2018-07-09T05:07:57.312Z,99545.21
2018-07-09T05:10:26.387Z,99547.10
2018-07-09T05:12:55.214Z,99552.67
2018-07-09T05:15:22.974Z,99539.56
2018-07-09T05:17:51.399Z,99544.36
2018-07-09T05:20:19.118Z,99548.36
2018-07-09T05:22:46.925Z,99548.16
2018-07-09T05:25:15.132Z,99541.88
2018-07-09T05:27:42.839Z,99548.23
2018-07-09T05:30:10.640Z,99550.36
2018-07-09T05:32:38.690Z,99551.97
2018-07-09T05:35:06.427Z,99554.64
2018-07-09T05:37:34.178Z,99552.61
2018-07-09T05:40:02.367Z,99556.31
2018-07-09T05:42:30.106Z,99559.53
2018-07-09T05:44:57.850Z,99560.09
2018-07-09T05:47:25.882Z,99558.54
2018-07-09T05:49:53.934Z,99557.52
2018-07-09T05:52:21.696Z,99556.48
2018-07-09T05:54:49.919Z,99537.77
2018-07-09T05:57:17.786Z,99544.39
2018-07-09T05:59:46.597Z,99544.41
2018-07-09T06:02:14.724Z,99539.41
2018-07-09T06:04:42.471Z,99535.22
2018-07-09T06:07:10.223Z,99529.95
2018-07-09T06:09:40.732Z,99526.00
2018-07-09T06:12:08.861Z,99533.63
2018-07-09T06:14:36.720Z,99532.33
2018-07-09T06:17:05.094Z,99527.09
2018-07-09T06:19:32.837Z,99526.59
2018-07-09T06:22:00.588Z,99528.98
2018-07-09T06:24:28.630Z,99531.67
2018-07-09T06:26:57.187Z,99525.34
2018-07-09T06:29:25.102Z,99529.31
2018-07-09T06:31:53.429Z,99530.63
2018-07-09T06:34:21.217Z,99528.27
2018-07-09T06:36:48.938Z,99519.55
2018-07-09T06:39:17.046Z,99525.09
2018-07-09T06:41:45.688Z,99525.35
2018-07-09T06:44:13.385Z,99520.63
2018-07-09T06:46:41.559Z,99532.50
2018-07-09T06:49:09.246Z,99537.53
2018-07-09T06:51:37.240Z,99535.41
2018-07-09T06:54:05.344Z,99534.86
2018-07-09T06:56:33.063Z,99535.66
2018-07-09T06:59:00.836Z,99549.67
2018-07-09T07:01:29.514Z,99547.03
2018-07-09T07:03:57.229Z,99545.16
2018-07-09T07:06:24.960Z,99555.98
2018-07-09T07:08:53.962Z,99552.02
2018-07-09T07:11:21.716Z,99552.27
2018-07-09T07:13:49.910Z,99553.62
2018-07-09T07:16:18.145Z,99553.90
2018-07-09T07:18:45.999Z,99556.50
2018-07-09T07:21:13.753Z,99553.08
2018-07-09T07:23:41.998Z,99549.62
2018-07-09T07:26:09.738Z,99552.25
2018-07-09T07:28:37.463Z,99555.95
2018-07-09T07:31:05.578Z,99560.67
2018-07-09T07:33:33.312Z,99564.63
2018-07-09T07:36:01.846Z,99557.49
2018-07-09T07:38:30.041Z,99550.86
2018-07-09T07:40:57.767Z,99555.07
2018-07-09T07:43:26.470Z,99560.09
2018-07-09T07:45:55.642Z,99556.36
2018-07-09T07:48:23.391Z,99544.71
2018-07-09T07:50:51.216Z,99539.67
2018-07-09T07:53:21.201Z,99547.07
2018-07-09T07:55:48.935Z,99546.50
2018-07-09T07:58:16.685Z,99548.11
2018-07-09T08:00:45.680Z,99538.52
2018-07-09T08:03:14.293Z,99533.18
2018-07-09T08:05:43.324Z,99529.41
2018-07-09T08:08:12.155Z,99527.29
2018-07-09T08:10:39.888Z,99535.16
2018-07-09T08:13:27.996Z,99526.09
2018-07-09T08:15:36.037Z,99529.70
2018-07-09T08:18:03.798Z,99534.16
2018-07-09T08:20:31.530Z,99529.34
2018-07-09T08:23:00.484Z,99534.62
2018-07-09T08:25:28.675Z,99533.25
2018-07-09T08:27:56.309Z,99528.45
2018-07-09T08:30:24.492Z,99519.97
2018-07-09T08:32:52.220Z,99522.27
2018-07-09T08:35:19.970Z,99523.50
2018-07-09T08:37:48.210Z,99517.00
2018-07-09T08:40:16.261Z,99525.38
2018-07-09T08:42:44.258Z,99522.13
2018-07-09T08:45:13.570Z,99517.53
2018-07-09T08:47:43.139Z,99511.06
2018-07-09T08:50:11.006Z,99516.03
2018-07-09T08:52:39.085Z,99517.55
2018-07-09T08:55:10.864Z,99515.61
2018-07-09T08:57:38.702Z,99518.94
2018-07-09T09:00:07.405Z,99517.79
2018-07-09T09:02:39.318Z,99516.22
2018-07-09T09:05:07.058Z,99512.20
2018-07-09T09:07:35.302Z,99514.27
2018-07-09T09:10:03.095Z,99509.77
2018-07-09T09:12:32.377Z,99510.84
2018-07-09T09:15:00.551Z,99506.86
2018-07-09T09:17:28.289Z,99505.54
2018-07-09T09:19:56.190Z,99509.77
2018-07-09T09:22:24.388Z,99517.20
2018-07-09T09:24:52.108Z,99510.29
2018-07-09T09:27:22.973Z,99508.92
2018-07-09T09:29:52.619Z,99512.21
2018-07-09T09:32:22.267Z,99514.69
2018-07-09T09:34:51.631Z,99509.72
2018-07-09T09:37:20.197Z,99499.70
2018-07-09T09:39:48.544Z,99485.41
2018-07-09T09:42:16.706Z,99480.17
2018-07-09T09:44:44.455Z,99481.58
2018-07-09T09:47:12.469Z,99480.36
2018-07-09T09:49:42.490Z,99476.75
2018-07-09T09:52:10.223Z,99485.34
2018-07-09T09:54:39.966Z,99485.53
2018-07-09T09:57:08.610Z,99482.78
2018-07-09T09:59:37.312Z,99477.08
2018-07-09T10:02:05.175Z,99482.01
2018-07-09T10:04:33.962Z,99475.40
2018-07-09T10:07:01.754Z,99477.27
2018-07-09T10:09:29.503Z,99481.72
2018-07-09T10:11:58.630Z,99472.11
2018-07-09T10:14:26.367Z,99465.66
2018-07-09T10:16:54.229Z,99468.83
2018-07-09T10:19:22.995Z,99472.59
2018-07-09T10:21:50.737Z,99473.18
2018-07-09T10:24:18.474Z,99474.63
2018-07-09T10:26:46.509Z,99472.91
2018-07-09T10:29:14.219Z,99478.91
2018-07-09T10:31:42.129Z,99474.00
2018-07-09T10:34:12.000Z,99479.73
2018-07-09T10:36:42.753Z,99474.05
2018-07-09T10:39:10.559Z,99467.48
2018-07-09T10:41:38.582Z,99469.73
2018-07-09T10:44:10.594Z,99468.09
2018-07-09T10:46:40.467Z,99467.47
2018-07-09T10:49:09.539Z,99473.53
2018-07-09T10:51:38.417Z,99471.03
2018-07-09T10:54:06.423Z,99465.77
2018-07-09T10:56:34.467Z,99467.57
2018-07-09T10:59:03.407Z,99466.60
2018-07-09T11:01:31.334Z,99459.91
2018-07-09T11:03:59.378Z,99456.50
2018-07-09T11:06:27.126Z,99463.76
2018-07-09T11:08:56.941Z,99459.38
2018-07-09T11:11:25.803Z,99458.00
2018-07-09T11:13:53.583Z,99456.52
2018-07-09T11:16:21.499Z,99451.19
2018-07-09T11:18:49.479Z,99449.55
2018-07-09T11:21:17.238Z,99456.22
2018-07-09T11:23:45.821Z,99452.98
2018-07-09T11:26:13.989Z,99454.64
2018-07-09T11:28:41.824Z,99450.75
2018-07-09T11:31:10.603Z,99455.95
2018-07-09T11:33:40.217Z,99455.30
2018-07-09T11:36:10.690Z,99456.87
2018-07-09T11:38:39.625Z,99461.59
2018-07-09T11:41:07.980Z,99459.95
2018-07-09T11:43:36.318Z,99450.69
2018-07-09T11:46:04.119Z,99465.59
2018-07-09T11:48:32.159Z,99460.41
2018-07-09T11:50:59.994Z,99462.28
2018-07-09T11:53:27.881Z,99467.08
2018-07-09T11:55:57.697Z,99464.03
2018-07-09T11:58:25.746Z,99461.22
2018-07-09T12:00:54.426Z,99450.08
2018-07-09T12:03:23.326Z,99456.53
2018-07-09T12:05:52.022Z,99462.20
2018-07-09T12:08:19.793Z,99457.02
2018-07-09T12:10:48.886Z,99448.70
2018-07-09T12:13:20.429Z,99450.57
2018-07-09T12:15:52.043Z,99454.12
2018-07-09T12:18:20.328Z,99444.36
2018-07-09T12:20:49.528Z,99446.64
2018-07-09T12:23:18.252Z,99454.50
2018-07-09T12:25:47.186Z,99449.89
2018-07-09T12:28:15.057Z,99454.92
2018-07-09T12:30:43.413Z,99450.27
2018-07-09T12:33:11.692Z,99453.02
2018-07-09T12:35:39.491Z,99455.06
2018-07-09T12:39:22.050Z,99449.30
2018-07-09T12:41:50.326Z,99447.42
2018-07-09T12:44:19.934Z,99447.94
2018-07-09T12:46:49.256Z,99438.51
2018-07-09T12:49:17.034Z,99444.71
2018-07-09T12:51:44.775Z,99447.52
2018-07-09T12:54:16.574Z,99444.36
2018-07-09T12:56:45.108Z,99440.99
2018-07-09T12:59:13.806Z,99441.30
2018-07-09T13:01:42.888Z,99439.53
2018-07-09T13:04:11.620Z,99432.60
2018-07-09T13:06:39.370Z,99432.30
2018-07-09T13:09:07.412Z,99429.13
2018-07-09T13:11:36.219Z,99420.87
2018-07-09T13:14:03.964Z,99429.83
2018-07-09T13:16:35.634Z,99441.30
2018-07-09T13:19:03.420Z,99440.69
2018-07-09T13:21:32.475Z,99437.95
2018-07-09T13:24:00.569Z,99437.95
2018-07-09T13:26:28.654Z,99428.92
2018-07-09T13:28:59.167Z,99429.31
2018-07-09T13:31:27.527Z,99430.27
2018-07-09T13:33:56.462Z,99428.56
2018-07-09T13:36:24.207Z,99429.11
2018-07-09T13:38:52.279Z,99431.80
2018-07-09T13:41:20.974Z,99428.38
2018-07-09T13:43:49.185Z,99426.81
2018-07-09T13:46:17.241Z,99421.25
2018-07-09T13:48:45.927Z,99417.32
2018-07-09T13:51:13.715Z,99413.42
2018-07-09T13:53:41.861Z,99415.86
2018-07-09T13:56:10.714Z,99416.47
2018-07-09T13:58:38.835Z,99407.45
2018-07-09T14:01:08.510Z,99409.39
2018-07-09T14:03:36.479Z,99403.44
2018-07-09T14:06:04.227Z,99400.14
2018-07-09T14:08:31.973Z,99397.53
2018-07-09T14:11:00.268Z,99381.91
2018-07-09T14:13:28.358Z,99385.03
2018-07-09T14:15:57.075Z,99387.70
2018-07-09T14:18:26.935Z,99387.47
2018-07-09T14:20:56.576Z,99384.11
2018-07-09T14:23:27.637Z,99376.50
2018-07-09T14:25:55.426Z,99365.89
2018-07-09T14:28:24.962Z,99364.93
2018-07-09T14:30:52.737Z,99358.73
2018-07-09T14:33:20.520Z,99355.64
2018-07-09T14:35:50.557Z,99351.18
2018-07-09T14:40:55.627Z,99339.61
2018-07-09T14:43:23.679Z,99335.75
2018-07-09T14:45:53.312Z,99337.00
2018-07-09T14:48:21.600Z,99329.16
2018-07-09T14:50:51.338Z,99332.82
2018-07-09T14:53:20.552Z,99325.52
2018-07-09T14:55:52.633Z,99328.90
2018-07-09T14:58:20.711Z,99329.80
2018-07-09T15:00:49.377Z,99324.97
2018-07-09T15:03:17.953Z,99325.20
2018-07-09T15:05:48.364Z,99318.80
2018-07-09T15:08:16.122Z,99322.13
2018-07-09T15:10:44.140Z,99320.88
2018-07-09T15:13:16.869Z,99313.04
2018-07-09T15:15:44.692Z,99317.90
2018-07-09T15:18:12.438Z,99310.54
2018-07-09T15:20:40.488Z,99310.72
2018-07-09T15:23:08.279Z,99307.50
2018-07-09T15:25:37.526Z,99307.61
2018-07-09T15:28:05.616Z,99308.17
2018-07-09T15:30:33.403Z,99308.59
2018-07-09T15:33:04.134Z,99305.83
2018-07-09T15:35:34.338Z,99299.31
2018-07-09T15:38:02.125Z,99297.66
2018-07-09T15:40:33.508Z,99296.88
2018-07-09T15:43:02.384Z,99300.28
2018-07-09T15:45:30.394Z,99298.69
2018-07-09T15:47:58.840Z,99296.33
2018-07-09T15:50:32.636Z,99292.97
2018-07-09T15:53:00.524Z,99285.58
2018-07-09T15:55:35.341Z,99283.52
2018-07-09T15:58:03.761Z,99283.67
2018-07-09T16:00:35.371Z,99283.48
2018-07-09T16:03:04.247Z,99280.71
2018-07-09T16:05:32.336Z,99288.03
2018-07-09T16:08:01.344Z,99273.10
2018-07-09T16:10:30.544Z,99278.20
2018-07-09T16:13:00.029Z,99266.32
2018-07-09T16:15:27.842Z,99271.78
2018-07-09T16:17:57.306Z,99267.78
2018-07-09T16:20:26.248Z,99272.20
2018-07-09T16:22:54.274Z,99270.21
2018-07-09T16:25:23.418Z,99263.32
2018-07-09T16:27:54.115Z,99268.17
2018-07-09T16:30:32.535Z,99260.66
2018-07-09T16:33:00.596Z,99264.95
2018-07-09T16:35:29.407Z,99262.35
2018-07-09T16:37:58.024Z,99257.89
2018-07-09T16:40:28.439Z,99257.66
2018-07-09T16:43:00.044Z,99253.37
2018-07-09T16:45:30.559Z,99255.23
2018-07-09T16:47:59.383Z,99251.47
2018-07-09T16:50:27.850Z,99249.84
2018-07-09T16:52:57.691Z,99255.83
2018-07-09T16:55:25.486Z,99248.65
2018-07-09T16:57:54.442Z,99248.61
2018-07-09T17:00:23.316Z,99243.51
2018-07-09T17:02:52.489Z,99230.94
2018-07-09T17:05:21.226Z,99231.45
2018-07-09T17:07:49.259Z,99232.72
2018-07-09T17:10:17.312Z,99229.38
2018-07-09T17:12:46.596Z,99232.20
2018-07-09T17:18:00.394Z,99214.72
2018-07-09T17:20:33.238Z,99216.21
2018-07-09T17:23:01.643Z,99215.83
2018-07-09T17:28:13.680Z,99206.42
2018-07-09T17:30:41.571Z,99204.83
2018-07-09T17:33:10.214Z,99196.83
2018-07-09T17:35:40.328Z,99199.34
2018-07-09T17:38:08.948Z,99196.97
2018-07-09T17:40:39.387Z,99196.30
2018-07-09T17:43:07.660Z,99196.38
2018-07-09T17:45:35.439Z,99193.25
2018-07-09T17:48:03.190Z,99195.66
2018-07-09T17:50:33.210Z,99206.14
2018-07-09T17:53:00.978Z,99201.27
2018-07-09T17:55:33.724Z,99204.67
2018-07-09T17:58:01.834Z,99208.34
2018-07-09T18:00:32.616Z,99207.75
2018-07-09T18:03:01.330Z,99208.52
2018-07-09T18:05:33.443Z,99211.61
2018-07-09T18:08:01.239Z,99205.65
2018-07-09T18:10:34.760Z,99202.25
2018-07-09T18:13:03.899Z,99202.16
2018-07-09T18:15:33.612Z,99199.86
2018-07-09T18:18:04.265Z,99201.34
2018-07-09T18:20:35.958Z,99197.92
2018-07-09T18:23:04.735Z,99194.23
2018-07-09T18:25:38.981Z,99201.41
2018-07-09T18:28:08.651Z,99201.53
2018-07-09T18:30:37.265Z,99192.85
2018-07-09T18:33:07.368Z,99193.52
2018-07-09T18:35:37.192Z,99190.20
2018-07-09T18:38:05.049Z,99188.20
2018-07-09T18:40:34.586Z,99182.72
2018-07-09T18:43:02.731Z,99185.97
2018-07-09T18:45:30.530Z,99181.50
2018-07-09T18:48:01.880Z,99181.86
2018-07-09T18:50:33.178Z,99186.20
2018-07-09T18:53:02.562Z,99174.86
2018-07-09T18:55:31.913Z,99175.22
2018-07-09T18:58:01.099Z,99172.45
2018-07-09T19:00:30.041Z,99180.77
2018-07-09T19:02:58.916Z,99181.62
2018-07-09T19:05:28.368Z,99176.41
2018-07-09T19:07:56.423Z,99173.80
2018-07-09T19:10:26.771Z,99169.13
2018-07-09T19:12:55.623Z,99173.50
2018-07-09T19:15:23.594Z,99172.28
2018-07-09T19:17:53.425Z,99171.83
2018-07-09T19:20:25.308Z,99178.30
2018-07-09T19:22:54.311Z,99183.95
2018-07-09T19:25:23.517Z,99175.00
2018-07-09T19:27:52.444Z,99179.13
2018-07-09T19:30:22.151Z,99176.25
2018-07-09T19:32:51.791Z,99181.95
2018-07-09T19:35:22.737Z,99183.91
2018-07-09T19:37:52.036Z,99178.70
2018-07-09T19:40:21.641Z,99180.37
2018-07-09T19:42:51.225Z,99179.95
2018-07-09T19:45:21.599Z,99187.16
2018-07-09T19:47:52.557Z,99184.31
2018-07-09T19:50:23.954Z,99185.19
2018-07-09T19:52:52.404Z,99191.68
2018-07-09T19:55:21.326Z,99197.85
2018-07-09T19:57:49.273Z,99201.93
2018-07-09T20:00:18.413Z,99198.05
2018-07-09T20:02:46.503Z,99202.88
2018-07-09T20:05:14.299Z,99206.09
2018-07-09T20:07:43.367Z,99203.25
2018-07-09T20:10:16.008Z,99204.14
2018-07-09T20:12:48.740Z,99201.58
2018-07-09T20:15:21.802Z,99198.69
2018-07-09T20:17:51.834Z,99196.69
2018-07-09T20:20:20.268Z,99200.52
2018-07-09T20:22:48.853Z,99197.95
2018-07-09T20:25:17.823Z,99194.34
2018-07-09T20:27:49.031Z,99195.23
2018-07-09T20:30:20.411Z,99189.98
2018-07-09T20:32:49.990Z,99188.73
2018-07-09T20:35:21.051Z,99188.78
2018-07-09T20:37:49.931Z,99197.33
2018-07-09T20:40:17.761Z,99198.18
2018-07-09T20:42:45.785Z,99195.05
2018-07-09T20:45:14.796Z,99186.92
2018-07-09T20:47:43.154Z,99179.05
2018-07-09T20:50:11.960Z,99190.46
2018-07-09T20:52:39.753Z,99189.98
2018-07-09T20:55:07.728Z,99185.00
2018-07-09T20:57:37.546Z,99185.84
2018-07-09T21:02:41.512Z,99182.42
2018-07-09T21:05:11.954Z,99184.34
2018-07-09T21:07:39.690Z,99182.02
2018-07-09T21:10:07.693Z,99177.59
2018-07-09T21:12:39.950Z,99175.25
2018-07-09T21:15:07.757Z,99179.02
2018-07-09T21:17:36.520Z,99177.42
2018-07-09T21:20:08.206Z,99167.66
2018-07-09T21:22:41.242Z,99174.56
2018-07-09T21:25:10.592Z,99175.68
2018-07-09T21:27:39.843Z,99179.41
2018-07-09T21:30:14.392Z,99172.27
2018-07-09T21:32:44.472Z,99176.87
2018-07-09T21:35:14.089Z,99177.28
2018-07-09T21:37:43.522Z,99172.92
2018-07-09T21:40:12.058Z,99166.40
2018-07-09T21:42:40.755Z,99172.58
2018-07-09T21:45:09.121Z,99174.55
2018-07-09T21:47:37.013Z,99169.63
2018-07-09T21:50:05.710Z,99170.70
2018-07-09T21:52:33.467Z,99166.81
2018-07-09T21:55:01.204Z,99170.13
2018-07-09T21:57:33.653Z,99168.30
2018-07-09T22:00:01.386Z,99166.73
2018-07-09T22:02:30.634Z,99165.73
2018-07-09T22:04:59.782Z,99165.27
2018-07-09T22:07:27.553Z,99169.28
2018-07-09T22:09:55.291Z,99159.58
2018-07-09T22:12:24.454Z,99161.70
2018-07-09T22:14:53.357Z,99153.77
2018-07-09T22:17:21.102Z,99154.79
2018-07-09T22:19:49.164Z,99141.57
2018-07-09T22:22:16.904Z,99150.03
2018-07-09T22:24:45.433Z,99151.34
2018-07-09T22:27:13.490Z,99152.12
2018-07-09T22:29:41.250Z,99151.02
2018-07-09T22:32:09.509Z,99152.62
2018-07-09T22:34:38.455Z,99153.17
2018-07-09T22:37:08.495Z,99146.06
2018-07-09T22:39:36.248Z,99149.75
2018-07-09T22:42:05.250Z,99148.45
2018-07-09T22:44:32.977Z,99150.88
2018-07-09T22:47:01.491Z,99151.97
2018-07-09T22:49:30.500Z,99150.77
2018-07-09T22:51:58.247Z,99147.94
2018-07-09T22:54:26.999Z,99155.63
2018-07-09T22:56:55.012Z,99160.72
2018-07-09T22:59:22.744Z,99165.78
2018-07-09T23:01:50.478Z,99173.26
2018-07-09T23:04:18.554Z,99175.42
2018-07-09T23:06:46.316Z,99179.17
2018-07-09T23:09:14.327Z,99179.20
2018-07-09T23:11:44.119Z,99184.52
2018-07-09T23:14:12.508Z,99171.63
2018-07-09T23:16:41.233Z,99162.73
2018-07-09T23:19:10.301Z,99159.33
2018-07-09T23:21:39.499Z,99166.20
2018-07-09T23:24:07.245Z,99159.38
2018-07-09T23:26:36.152Z,99157.33
2018-07-09T23:29:06.413Z,99156.81
2018-07-09T23:31:34.723Z,99155.25
2018-07-09T23:34:03.150Z,99153.69
2018-07-09T23:36:31.492Z,99150.52
2018-07-09T23:38:59.233Z,99141.02
2018-07-09T23:41:28.848Z,99145.23
2018-07-09T23:43:56.586Z,99142.09
2018-07-09T23:46:24.340Z,99145.27
2018-07-09T23:48:52.046Z,99132.09
2018-07-09T23:51:20.831Z,99141.05
2018-07-09T23:53:48.619Z,99132.39
2018-07-09T23:56:18.244Z,99132.40
2018-07-09T23:58:46.252Z,99133.23
